Aparecida do Taboado, Brazil
Current Conditions -  °F | °C
As of 6:00 PM on Saturday 25 Oct 2014 (Local Time) from SBAU Reporting Station
Thunderstorm Thunderstorm  
Wind Chill: 73°   Ceiling: 2000
Heat Index: 73°   Visibility: 4mi
Dew Point: 68°   Wind: 6mph
Humidity: 83%   Direction: 110°ESE
Pressure: 29.94"   Gusts: NA
Location:  20.09°S, 51.09°W
Report Text: SBAU 252100Z 11005KT 7000 3000SE -DZ TS SCT010 BKN020 FEW035CB OVC090 23/20 Q1014
Loading
Personal Weather Stations






























Interactive Weather Map
Tropical Storm Tracking
New forecast layout! Learn more

10-Day Weather Forecast

Advertisements
Track Severe Weather on mobile